AU-0121 weather

YKCY
Kilcoy, Queensland, Australia

Public forecast

Using degrees Celsius for public forecast. Weather courtesy of forecast.io.

METAR (pilot weather report)

Closest report is Brisbane International Airport, 38.4 nm (71.2 km) SE. Retrieved 2019/02/20 11:00 UTC (21 minutes ago):

YBBN 201100Z 13006KT 9999 SCT020 26/23 Q1007 TEMPO 1200/1400 9999 NSW BKN012

TAF (pilot weather forecast)

Forecast is more than 12 hours old.

Closest forecast is Brisbane International Airport, 38.4 nm (71.2 km) SE. Retrieved 2019/02/19 18:35 UTC (17 hours ago):

TAF YBBN 191704Z 1918/2024 20005KT 9999 SCT018 FM192300 14010KT 9999 SCT030 FM200200 10014KT CAVOK FM200900 13008KT 9999 SCT018 FM201500 20008KT 9999 SCT018 FM202200 15016KT 9999 SCT020